Pacific, Washington
Current Conditions -  °F | °C
As of 8:58 AM on Wednesday 26 Nov 2014 (Local Time) from KTCM Reporting Station
Overcast Overcast  
Wind Chill: 53°   Ceiling: 3300
Heat Index: 53°   Visibility: 10mi
Dew Point: 53°   Wind: 0mph
Humidity: 100%   Direction: NA
Pressure: 30.14"   Gusts: NA
Location:  47.26°N, 122.25°W
Report Text: KTCM 261658Z AUTO 00000KT 10SM FEW020 SCT027 BKN033 OVC041 12/12 A3014 RMK AO2 RAB1646E1647DZE1603B1636E1646 SLP210 P0000 T01170117 $
Loading
Personal Weather Stations






























Interactive Weather Map New forecast layout! Learn more

10-Day Weather Forecast

Advertisements
Track Severe Weather on mobile